sensor_id;sensor_type;location;lat;lon;timestamp;P1;durP1;ratioP1;P2;durP2;ratioP2
69183;SDS011;56291;53.960;27.550;2023-02-28T05:00:15;4.65;;;2.47;;
69183;SDS011;56291;53.960;27.550;2023-02-28T05:02:42;5.30;;;2.65;;
69183;SDS011;56291;53.960;27.550;2023-02-28T05:05:08;7.00;;;4.30;;
69183;SDS011;56291;53.960;27.550;2023-02-28T05:07:34;5.85;;;4.15;;
69183;SDS011;56291;53.960;27.550;2023-02-28T05:10:01;7.45;;;4.18;;
69183;SDS011;56291;53.960;27.550;2023-02-28T05:12:28;6.75;;;3.72;;
69183;SDS011;56291;53.960;27.550;2023-02-28T05:14:54;9.73;;;5.07;;
69183;SDS011;56291;53.960;27.550;2023-02-28T05:17:21;17.30;;;5.38;;
69183;SDS011;56291;53.960;27.550;2023-02-28T05:19:47;10.02;;;5.20;;
69183;SDS011;56291;53.960;27.550;2023-02-28T05:22:14;10.55;;;4.97;;
69183;SDS011;56291;53.960;27.550;2023-02-28T05:24:43;7.15;;;3.42;;
69183;SDS011;56291;53.960;27.550;2023-02-28T05:27:10;12.35;;;5.32;;
69183;SDS011;56291;53.960;27.550;2023-02-28T05:29:39;4.50;;;3.58;;
69183;SDS011;56291;53.960;27.550;2023-02-28T05:32:09;9.55;;;5.75;;
69183;SDS011;56291;53.960;27.550;2023-02-28T05:34:36;6.40;;;3.88;;
69183;SDS011;56291;53.960;27.550;2023-02-28T05:37:03;7.93;;;4.60;;
69183;SDS011;56291;53.960;27.550;2023-02-28T05:39:30;6.10;;;3.25;;
69183;SDS011;56291;53.960;27.550;2023-02-28T05:41:56;7.65;;;4.25;;
69183;SDS011;56291;53.960;27.550;2023-02-28T05:44:23;12.07;;;5.18;;
69183;SDS011;56291;53.960;27.550;2023-02-28T05:46:49;8.55;;;4.35;;
69183;SDS011;56291;53.960;27.550;2023-02-28T05:49:15;9.05;;;5.38;;
69183;SDS011;56291;53.960;27.550;2023-02-28T05:51:42;8.25;;;4.25;;
69183;SDS011;56291;53.960;27.550;2023-02-28T05:54:08;6.57;;;4.18;;
69183;SDS011;56291;53.960;27.550;2023-02-28T05:56:34;8.07;;;4.45;;
69183;SDS011;56291;53.960;27.550;2023-02-28T05:59:02;5.88;;;4.25;;
69183;SDS011;56291;53.960;27.550;2023-02-28T06:01:33;8.45;;;4.93;;
69183;SDS011;56291;53.960;27.550;2023-02-28T06:04:02;7.55;;;4.50;;
69183;SDS011;56291;53.960;27.550;2023-02-28T06:06:37;8.52;;;5.18;;
69183;SDS011;56291;53.960;27.550;2023-02-28T06:09:07;11.35;;;5.45;;
69183;SDS011;56291;53.960;27.550;2023-02-28T06:11:33;7.05;;;4.68;;
69183;SDS011;56291;53.960;27.550;2023-02-28T06:14:00;7.50;;;4.22;;
69183;SDS011;56291;53.960;27.550;2023-02-28T06:16:27;11.75;;;5.18;;
69183;SDS011;56291;53.960;27.550;2023-02-28T06:18:56;11.40;;;5.45;;
69183;SDS011;56291;53.960;27.550;2023-02-28T06:21:23;8.15;;;4.47;;
69183;SDS011;56291;53.960;27.550;2023-02-28T06:23:53;7.53;;;4.53;;
69183;SDS011;56291;53.960;27.550;2023-02-28T06:26:20;12.07;;;4.75;;
69183;SDS011;56291;53.960;27.550;2023-02-28T06:28:47;6.55;;;4.30;;
69183;SDS011;56291;53.960;27.550;2023-02-28T06:31:14;7.15;;;4.55;;
69183;SDS011;56291;53.960;27.550;2023-02-28T06:33:42;8.43;;;5.85;;
69183;SDS011;56291;53.960;27.550;2023-02-28T06:36:10;9.27;;;4.72;;
69183;SDS011;56291;53.960;27.550;2023-02-28T06:38:38;7.75;;;4.18;;
69183;SDS011;56291;53.960;27.550;2023-02-28T06:41:05;11.63;;;5.95;;
69183;SDS011;56291;53.960;27.550;2023-02-28T06:43:34;12.70;;;5.57;;
69183;SDS011;56291;53.960;27.550;2023-02-28T06:46:03;8.85;;;4.43;;
69183;SDS011;56291;53.960;27.550;2023-02-28T06:48:32;9.43;;;5.10;;
69183;SDS011;56291;53.960;27.550;2023-02-28T06:51:05;11.80;;;5.93;;
69183;SDS011;56291;53.960;27.550;2023-02-28T06:53:34;7.95;;;4.18;;
69183;SDS011;56291;53.960;27.550;2023-02-28T06:56:05;8.90;;;4.45;;
69183;SDS011;56291;53.960;27.550;2023-02-28T06:58:32;7.78;;;4.93;;
69183;SDS011;56291;53.960;27.550;2023-02-28T07:01:02;9.23;;;4.30;;
69183;SDS011;56291;53.960;27.550;2023-02-28T07:03:29;10.35;;;5.07;;
69183;SDS011;56291;53.960;27.550;2023-02-28T07:05:55;14.40;;;5.63;;
69183;SDS011;56291;53.960;27.550;2023-02-28T07:08:22;11.48;;;5.38;;
69183;SDS011;56291;53.960;27.550;2023-02-28T07:10:52;8.18;;;4.72;;
69183;SDS011;56291;53.960;27.550;2023-02-28T07:13:23;12.15;;;5.88;;
69183;SDS011;56291;53.960;27.550;2023-02-28T07:15:53;12.15;;;5.88;;
69183;SDS011;56291;53.960;27.550;2023-02-28T07:18:20;11.38;;;4.75;;
69183;SDS011;56291;53.960;27.550;2023-02-28T07:20:46;12.52;;;6.78;;
69183;SDS011;56291;53.960;27.550;2023-02-28T07:23:12;13.85;;;6.25;;
69183;SDS011;56291;53.960;27.550;2023-02-28T07:25:39;13.10;;;5.13;;
69183;SDS011;56291;53.960;27.550;2023-02-28T07:28:05;12.18;;;5.15;;
69183;SDS011;56291;53.960;27.550;2023-02-28T07:30:31;9.82;;;5.10;;
69183;SDS011;56291;53.960;27.550;2023-02-28T07:32:58;13.60;;;5.97;;
69183;SDS011;56291;53.960;27.550;2023-02-28T07:35:25;9.80;;;5.43;;
69183;SDS011;56291;53.960;27.550;2023-02-28T07:37:52;9.07;;;4.78;;
69183;SDS011;56291;53.960;27.550;2023-02-28T07:40:19;9.63;;;5.03;;
69183;SDS011;56291;53.960;27.550;2023-02-28T07:42:47;10.27;;;5.25;;
69183;SDS011;56291;53.960;27.550;2023-02-28T07:45:13;7.75;;;4.53;;
69183;SDS011;56291;53.960;27.550;2023-02-28T07:47:40;9.10;;;5.53;;
69183;SDS011;56291;53.960;27.550;2023-02-28T07:50:08;9.25;;;4.65;;
69183;SDS011;56291;53.960;27.550;2023-02-28T07:52:36;9.52;;;5.00;;
69183;SDS011;56291;53.960;27.550;2023-02-28T07:55:04;11.43;;;5.28;;
69183;SDS011;56291;53.960;27.550;2023-02-28T07:57:31;11.02;;;5.68;;
69183;SDS011;56291;53.960;27.550;2023-02-28T07:59:57;8.40;;;4.85;;
69183;SDS011;56291;53.960;27.550;2023-02-28T08:02:24;8.75;;;5.32;;
69183;SDS011;56291;53.960;27.550;2023-02-28T08:04:50;11.05;;;5.38;;
69183;SDS011;56291;53.960;27.550;2023-02-28T08:07:16;9.00;;;4.28;;
69183;SDS011;56291;53.960;27.550;2023-02-28T08:09:43;10.10;;;5.25;;
69183;SDS011;56291;53.960;27.550;2023-02-28T08:12:10;8.30;;;4.80;;
69183;SDS011;56291;53.960;27.550;2023-02-28T08:14:37;11.63;;;5.43;;
69183;SDS011;56291;53.960;27.550;2023-02-28T08:17:04;17.20;;;6.15;;
69183;SDS011;56291;53.960;27.550;2023-02-28T08:19:31;7.43;;;4.65;;
69183;SDS011;56291;53.960;27.550;2023-02-28T08:21:57;7.95;;;4.80;;
69183;SDS011;56291;53.960;27.550;2023-02-28T08:24:24;11.98;;;5.47;;
69183;SDS011;56291;53.960;27.550;2023-02-28T08:26:50;10.25;;;5.10;;
69183;SDS011;56291;53.960;27.550;2023-02-28T08:29:16;11.50;;;4.72;;
69183;SDS011;56291;53.960;27.550;2023-02-28T08:31:44;9.55;;;4.85;;
69183;SDS011;56291;53.960;27.550;2023-02-28T08:34:12;6.25;;;3.50;;
69183;SDS011;56291;53.960;27.550;2023-02-28T08:36:40;15.27;;;4.90;;
69183;SDS011;56291;53.960;27.550;2023-02-28T08:39:07;11.65;;;4.38;;
69183;SDS011;56291;53.960;27.550;2023-02-28T08:41:34;7.47;;;4.35;;
69183;SDS011;56291;53.960;27.550;2023-02-28T08:44:00;9.43;;;4.47;;
69183;SDS011;56291;53.960;27.550;2023-02-28T08:46:26;7.60;;;4.10;;
69183;SDS011;56291;53.960;27.550;2023-02-28T08:48:53;10.65;;;4.63;;
69183;SDS011;56291;53.960;27.550;2023-02-28T08:51:24;7.70;;;3.78;;
69183;SDS011;56291;53.960;27.550;2023-02-28T08:53:54;7.32;;;4.05;;
69183;SDS011;56291;53.960;27.550;2023-02-28T08:56:24;7.32;;;4.05;;
69183;SDS011;56291;53.960;27.550;2023-02-28T08:58:51;6.93;;;3.95;;
69183;SDS011;56291;53.960;27.550;2023-02-28T09:01:25;7.93;;;3.78;;
69183;SDS011;56291;53.960;27.550;2023-02-28T09:06:20;6.47;;;3.25;;
69183;SDS011;56291;53.960;27.550;2023-02-28T09:08:49;8.98;;;3.63;;
69183;SDS011;56291;53.960;27.550;2023-02-28T09:11:16;7.85;;;4.00;;
69183;SDS011;56291;53.960;27.550;2023-02-28T09:13:43;11.85;;;5.43;;
69183;SDS011;56291;53.960;27.550;2023-02-28T09:16:11;8.68;;;4.50;;
69183;SDS011;56291;53.960;27.550;2023-02-28T09:18:39;12.73;;;5.18;;
69183;SDS011;56291;53.960;27.550;2023-02-28T09:21:06;12.05;;;4.90;;
69183;SDS011;56291;53.960;27.550;2023-02-28T09:23:35;7.63;;;3.78;;
69183;SDS011;56291;53.960;27.550;2023-02-28T09:26:03;11.98;;;3.55;;
69183;SDS011;56291;53.960;27.550;2023-02-28T09:28:30;7.38;;;3.92;;
69183;SDS011;56291;53.960;27.550;2023-02-28T09:30:57;9.10;;;4.53;;
69183;SDS011;56291;53.960;27.550;2023-02-28T09:33:24;8.15;;;3.78;;
69183;SDS011;56291;53.960;27.550;2023-02-28T09:35:56;6.00;;;3.40;;
69183;SDS011;56291;53.960;27.550;2023-02-28T09:38:25;6.07;;;3.22;;
69183;SDS011;56291;53.960;27.550;2023-02-28T09:40:53;7.13;;;3.65;;
69183;SDS011;56291;53.960;27.550;2023-02-28T09:43:27;7.20;;;3.97;;
69183;SDS011;56291;53.960;27.550;2023-02-28T09:46:44;6.45;;;3.30;;
69183;SDS011;56291;53.960;27.550;2023-02-28T09:49:00;7.05;;;2.88;;
69183;SDS011;56291;53.960;27.550;2023-02-28T09:54:20;7.80;;;3.10;;
69183;SDS011;56291;53.960;27.550;2023-02-28T09:56:50;6.72;;;3.85;;
69183;SDS011;56291;53.960;27.550;2023-02-28T10:05:24;9.00;;;3.35;;
69183;SDS011;56291;53.960;27.550;2023-02-28T10:08:16;4.85;;;2.15;;
69183;SDS011;56291;53.960;27.550;2023-02-28T10:10:58;7.38;;;2.85;;
69183;SDS011;56291;53.960;27.550;2023-02-28T10:16:10;7.45;;;3.75;;
69183;SDS011;56291;53.960;27.550;2023-02-28T10:18:41;6.10;;;2.67;;
69183;SDS011;56291;53.960;27.550;2023-02-28T10:21:20;6.30;;;2.92;;
69183;SDS011;56291;53.960;27.550;2023-02-28T10:23:56;5.93;;;2.65;;
69183;SDS011;56291;53.960;27.550;2023-02-28T10:26:29;5.68;;;2.97;;
69183;SDS011;56291;53.960;27.550;2023-02-28T10:28:57;5.80;;;2.67;;
69183;SDS011;56291;53.960;27.550;2023-02-28T10:31:28;4.35;;;2.35;;
69183;SDS011;56291;53.960;27.550;2023-02-28T10:34:16;6.97;;;3.53;;
69183;SDS011;56291;53.960;27.550;2023-02-28T10:36:57;4.70;;;2.80;;
69183;SDS011;56291;53.960;27.550;2023-02-28T10:39:42;6.65;;;2.47;;
69183;SDS011;56291;53.960;27.550;2023-02-28T10:45:16;6.88;;;3.13;;
69183;SDS011;56291;53.960;27.550;2023-02-28T10:48:02;4.47;;;2.33;;
69183;SDS011;56291;53.960;27.550;2023-02-28T10:56:20;4.45;;;2.45;;
69183;SDS011;56291;53.960;27.550;2023-02-28T11:04:02;4.18;;;2.50;;
69183;SDS011;56291;53.960;27.550;2023-02-28T11:06:30;5.18;;;2.80;;
69183;SDS011;56291;53.960;27.550;2023-02-28T11:09:04;12.10;;;3.38;;
69183;SDS011;56291;53.960;27.550;2023-02-28T11:11:45;4.13;;;2.35;;
69183;SDS011;56291;53.960;27.550;2023-02-28T11:14:28;4.55;;;2.35;;
69183;SDS011;56291;53.960;27.550;2023-02-28T11:17:21;5.70;;;2.55;;
69183;SDS011;56291;53.960;27.550;2023-02-28T11:22:21;4.68;;;2.38;;
69183;SDS011;56291;53.960;27.550;2023-02-28T11:24:57;5.25;;;2.65;;
69183;SDS011;56291;53.960;27.550;2023-02-28T11:30:23;3.97;;;2.38;;
69183;SDS011;56291;53.960;27.550;2023-02-28T11:32:57;3.55;;;2.30;;
69183;SDS011;56291;53.960;27.550;2023-02-28T11:35:41;3.53;;;2.45;;
69183;SDS011;56291;53.960;27.550;2023-02-28T11:38:09;5.90;;;2.78;;
69183;SDS011;56291;53.960;27.550;2023-02-28T11:55:59;6.30;;;2.83;;
69183;SDS011;56291;53.960;27.550;2023-02-28T11:59:23;4.80;;;2.95;;
69183;SDS011;56291;53.960;27.550;2023-02-28T12:01:55;4.18;;;2.55;;
69183;SDS011;56291;53.960;27.550;2023-02-28T12:20:10;4.15;;;2.38;;
69183;SDS011;56291;53.960;27.550;2023-02-28T12:22:46;4.47;;;2.58;;
69183;SDS011;56291;53.960;27.550;2023-02-28T12:28:44;4.70;;;2.55;;
69183;SDS011;56291;53.960;27.550;2023-02-28T12:31:36;7.53;;;2.67;;
69183;SDS011;56291;53.960;27.550;2023-02-28T12:34:16;4.47;;;2.28;;
69183;SDS011;56291;53.960;27.550;2023-02-28T12:36:48;3.97;;;2.17;;
69183;SDS011;56291;53.960;27.550;2023-02-28T12:39:26;5.75;;;2.30;;
69183;SDS011;56291;53.960;27.550;2023-02-28T12:42:07;5.18;;;2.78;;
69183;SDS011;56291;53.960;27.550;2023-02-28T12:44:59;6.53;;;2.70;;
69183;SDS011;56291;53.960;27.550;2023-02-28T12:47:27;5.50;;;2.35;;
69183;SDS011;56291;53.960;27.550;2023-02-28T12:50:03;4.53;;;2.60;;
69183;SDS011;56291;53.960;27.550;2023-02-28T12:58:29;4.65;;;2.50;;
69183;SDS011;56291;53.960;27.550;2023-02-28T13:04:13;5.32;;;2.72;;
69183;SDS011;56291;53.960;27.550;2023-02-28T13:06:58;5.72;;;2.45;;
69183;SDS011;56291;53.960;27.550;2023-02-28T13:12:21;6.35;;;2.70;;
69183;SDS011;56291;53.960;27.550;2023-02-28T13:14:49;5.40;;;2.63;;
69183;SDS011;56291;53.960;27.550;2023-02-28T13:17:26;5.90;;;2.67;;
69183;SDS011;56291;53.960;27.550;2023-02-28T13:19:57;7.72;;;3.17;;
69183;SDS011;56291;53.960;27.550;2023-02-28T13:24:56;7.93;;;2.78;;
69183;SDS011;56291;53.960;27.550;2023-02-28T13:27:35;3.88;;;2.53;;
69183;SDS011;56291;53.960;27.550;2023-02-28T13:33:23;5.10;;;2.78;;
69183;SDS011;56291;53.960;27.550;2023-02-28T13:38:44;5.57;;;2.90;;
69183;SDS011;56291;53.960;27.550;2023-02-28T13:41:40;4.30;;;2.40;;
69183;SDS011;56291;53.960;27.550;2023-02-28T13:44:19;4.20;;;2.70;;
69183;SDS011;56291;53.960;27.550;2023-02-28T13:49:41;6.32;;;2.85;;
69183;SDS011;56291;53.960;27.550;2023-02-28T13:52:13;6.28;;;3.10;;
69183;SDS011;56291;53.960;27.550;2023-02-28T14:05:15;4.37;;;2.43;;
69183;SDS011;56291;53.960;27.550;2023-02-28T14:07:50;6.20;;;2.80;;
69183;SDS011;56291;53.960;27.550;2023-02-28T14:10:31;8.15;;;2.90;;
69183;SDS011;56291;53.960;27.550;2023-02-28T14:16:05;4.43;;;2.67;;
69183;SDS011;56291;53.960;27.550;2023-02-28T14:18:37;6.03;;;3.10;;
69183;SDS011;56291;53.960;27.550;2023-02-28T14:21:32;5.20;;;2.90;;
69183;SDS011;56291;53.960;27.550;2023-02-28T14:32:49;4.75;;;2.47;;
69183;SDS011;56291;53.960;27.550;2023-02-28T14:35:35;5.43;;;2.70;;
69183;SDS011;56291;53.960;27.550;2023-02-28T14:38:33;3.90;;;2.30;;
69183;SDS011;56291;53.960;27.550;2023-02-28T14:41:31;4.30;;;2.20;;
69183;SDS011;56291;53.960;27.550;2023-02-28T14:44:02;3.90;;;2.15;;
69183;SDS011;56291;53.960;27.550;2023-02-28T14:46:45;4.60;;;2.20;;
69183;SDS011;56291;53.960;27.550;2023-02-28T14:49:18;4.40;;;2.55;;
69183;SDS011;56291;53.960;27.550;2023-02-28T14:52:03;3.97;;;2.20;;
69183;SDS011;56291;53.960;27.550;2023-02-28T14:54:35;2.78;;;2.03;;
69183;SDS011;56291;53.960;27.550;2023-02-28T14:57:04;4.43;;;2.30;;
69183;SDS011;56291;53.960;27.550;2023-02-28T14:59:32;3.17;;;1.90;;
69183;SDS011;56291;53.960;27.550;2023-02-28T15:04:55;6.40;;;2.30;;
69183;SDS011;56291;53.960;27.550;2023-02-28T15:07:24;4.97;;;2.60;;
69183;SDS011;56291;53.960;27.550;2023-02-28T15:13:06;3.42;;;2.08;;
69183;SDS011;56291;53.960;27.550;2023-02-28T15:18:26;4.30;;;2.20;;
69183;SDS011;56291;53.960;27.550;2023-02-28T15:20:58;4.90;;;2.22;;
69183;SDS011;56291;53.960;27.550;2023-02-28T15:23:30;3.75;;;2.58;;
69183;SDS011;56291;53.960;27.550;2023-02-28T15:25:59;3.42;;;2.03;;
69183;SDS011;56291;53.960;27.550;2023-02-28T15:28:26;4.50;;;2.58;;
69183;SDS011;56291;53.960;27.550;2023-02-28T15:31:03;5.72;;;2.30;;
69183;SDS011;56291;53.960;27.550;2023-02-28T15:33:54;4.43;;;2.33;;
69183;SDS011;56291;53.960;27.550;2023-02-28T15:36:26;7.18;;;2.50;;
69183;SDS011;56291;53.960;27.550;2023-02-28T15:38:57;5.68;;;2.45;;
69183;SDS011;56291;53.960;27.550;2023-02-28T15:41:24;5.53;;;2.65;;
69183;SDS011;56291;53.960;27.550;2023-02-28T15:44:35;5.07;;;2.22;;
69183;SDS011;56291;53.960;27.550;2023-02-28T15:49:21;5.22;;;2.60;;
69183;SDS011;56291;53.960;27.550;2023-02-28T15:51:50;6.65;;;2.50;;
69183;SDS011;56291;53.960;27.550;2023-02-28T15:54:24;3.85;;;2.20;;
69183;SDS011;56291;53.960;27.550;2023-02-28T15:57:04;4.65;;;2.42;;
69183;SDS011;56291;53.960;27.550;2023-02-28T15:59:35;5.20;;;2.40;;
69183;SDS011;56291;53.960;27.550;2023-02-28T16:02:19;3.70;;;2.35;;
69183;SDS011;56291;53.960;27.550;2023-02-28T16:05:24;3.83;;;2.03;;
69183;SDS011;56291;53.960;27.550;2023-02-28T16:07:58;4.05;;;2.22;;
69183;SDS011;56291;53.960;27.550;2023-02-28T16:10:37;6.90;;;3.00;;
69183;SDS011;56291;53.960;27.550;2023-02-28T16:13:04;4.85;;;2.50;;
69183;SDS011;56291;53.960;27.550;2023-02-28T16:15:31;5.50;;;2.58;;
69183;SDS011;56291;53.960;27.550;2023-02-28T16:18:07;4.70;;;2.83;;
69183;SDS011;56291;53.960;27.550;2023-02-28T16:20:39;4.55;;;2.20;;
69183;SDS011;56291;53.960;27.550;2023-02-28T16:23:05;3.97;;;2.30;;
69183;SDS011;56291;53.960;27.550;2023-02-28T16:25:34;6.72;;;2.42;;
69183;SDS011;56291;53.960;27.550;2023-02-28T16:28:11;4.88;;;2.40;;
69183;SDS011;56291;53.960;27.550;2023-02-28T16:30:46;3.25;;;2.00;;
69183;SDS011;56291;53.960;27.550;2023-02-28T16:33:13;5.05;;;2.30;;
69183;SDS011;56291;53.960;27.550;2023-02-28T16:35:39;4.10;;;2.40;;
69183;SDS011;56291;53.960;27.550;2023-02-28T16:38:05;6.63;;;2.63;;
69183;SDS011;56291;53.960;27.550;2023-02-28T16:40:33;3.47;;;2.10;;
69183;SDS011;56291;53.960;27.550;2023-02-28T16:43:00;5.60;;;2.60;;
69183;SDS011;56291;53.960;27.550;2023-02-28T16:45:33;5.50;;;2.42;;
69183;SDS011;56291;53.960;27.550;2023-02-28T16:48:02;7.15;;;2.70;;
69183;SDS011;56291;53.960;27.550;2023-02-28T16:50:29;3.42;;;2.17;;
69183;SDS011;56291;53.960;27.550;2023-02-28T16:52:57;3.72;;;2.28;;
69183;SDS011;56291;53.960;27.550;2023-02-28T16:55:24;4.57;;;2.15;;
69183;SDS011;56291;53.960;27.550;2023-02-28T16:57:52;4.22;;;2.33;;
69183;SDS011;56291;53.960;27.550;2023-02-28T17:00:20;6.05;;;2.45;;
69183;SDS011;56291;53.960;27.550;2023-02-28T17:02:47;4.20;;;2.50;;
69183;SDS011;56291;53.960;27.550;2023-02-28T17:05:13;3.88;;;2.00;;
69183;SDS011;56291;53.960;27.550;2023-02-28T17:07:41;7.20;;;2.70;;
69183;SDS011;56291;53.960;27.550;2023-02-28T17:10:12;4.07;;;2.35;;
69183;SDS011;56291;53.960;27.550;2023-02-28T17:12:40;4.35;;;2.33;;
69183;SDS011;56291;53.960;27.550;2023-02-28T17:15:08;4.15;;;2.17;;
69183;SDS011;56291;53.960;27.550;2023-02-28T17:17:41;4.50;;;2.15;;
69183;SDS011;56291;53.960;27.550;2023-02-28T17:20:13;3.28;;;2.17;;
69183;SDS011;56291;53.960;27.550;2023-02-28T17:22:49;4.88;;;2.33;;
69183;SDS011;56291;53.960;27.550;2023-02-28T17:25:15;3.63;;;1.98;;
69183;SDS011;56291;53.960;27.550;2023-02-28T17:27:42;2.95;;;1.90;;
69183;SDS011;56291;53.960;27.550;2023-02-28T17:30:18;4.95;;;2.28;;
69183;SDS011;56291;53.960;27.550;2023-02-28T17:32:47;6.18;;;2.30;;
69183;SDS011;56291;53.960;27.550;2023-02-28T17:35:13;3.05;;;1.77;;
69183;SDS011;56291;53.960;27.550;2023-02-28T17:37:40;4.57;;;2.55;;
69183;SDS011;56291;53.960;27.550;2023-02-28T17:40:06;5.03;;;2.40;;
69183;SDS011;56291;53.960;27.550;2023-02-28T17:42:41;4.10;;;2.55;;
69183;SDS011;56291;53.960;27.550;2023-02-28T17:45:08;3.35;;;2.20;;
69183;SDS011;56291;53.960;27.550;2023-02-28T17:47:35;4.68;;;2.50;;
69183;SDS011;56291;53.960;27.550;2023-02-28T17:50:02;2.92;;;1.73;;
69183;SDS011;56291;53.960;27.550;2023-02-28T17:52:29;5.65;;;2.50;;
69183;SDS011;56291;53.960;27.550;2023-02-28T17:54:56;4.50;;;2.15;;
69183;SDS011;56291;53.960;27.550;2023-02-28T17:57:22;3.00;;;2.10;;
69183;SDS011;56291;53.960;27.550;2023-02-28T17:59:48;3.13;;;1.80;;
69183;SDS011;56291;53.960;27.550;2023-02-28T18:02:14;3.95;;;2.03;;
69183;SDS011;56291;53.960;27.550;2023-02-28T18:04:41;4.80;;;1.90;;
69183;SDS011;56291;53.960;27.550;2023-02-28T18:07:09;4.05;;;2.30;;
69183;SDS011;56291;53.960;27.550;2023-02-28T18:09:37;4.55;;;2.35;;
69183;SDS011;56291;53.960;27.550;2023-02-28T18:12:03;5.07;;;2.22;;
69183;SDS011;56291;53.960;27.550;2023-02-28T18:14:30;3.03;;;1.90;;
69183;SDS011;56291;53.960;27.550;2023-02-28T18:16:56;2.92;;;1.77;;
69183;SDS011;56291;53.960;27.550;2023-02-28T18:19:22;4.10;;;2.05;;
69183;SDS011;56291;53.960;27.550;2023-02-28T18:21:50;4.50;;;2.22;;
69183;SDS011;56291;53.960;27.550;2023-02-28T18:24:19;3.75;;;1.67;;
69183;SDS011;56291;53.960;27.550;2023-02-28T18:26:47;3.20;;;1.73;;
69183;SDS011;56291;53.960;27.550;2023-02-28T18:29:23;3.72;;;1.92;;
69183;SDS011;56291;53.960;27.550;2023-02-28T18:31:51;3.88;;;2.47;;
69183;SDS011;56291;53.960;27.550;2023-02-28T18:34:19;4.47;;;2.38;;
69183;SDS011;56291;53.960;27.550;2023-02-28T18:36:46;2.63;;;1.98;;
69183;SDS011;56291;53.960;27.550;2023-02-28T18:39:14;2.83;;;2.08;;
69183;SDS011;56291;53.960;27.550;2023-02-28T18:41:41;4.55;;;2.13;;
69183;SDS011;56291;53.960;27.550;2023-02-28T18:44:08;4.22;;;2.53;;
69183;SDS011;56291;53.960;27.550;2023-02-28T18:46:34;5.97;;;2.42;;
69183;SDS011;56291;53.960;27.550;2023-02-28T18:49:02;5.38;;;2.25;;
69183;SDS011;56291;53.960;27.550;2023-02-28T18:51:29;3.63;;;2.00;;
69183;SDS011;56291;53.960;27.550;2023-02-28T18:53:56;4.18;;;1.92;;
69183;SDS011;56291;53.960;27.550;2023-02-28T18:56:24;3.05;;;1.83;;
69183;SDS011;56291;53.960;27.550;2023-02-28T18:58:50;4.07;;;2.13;;
69183;SDS011;56291;53.960;27.550;2023-02-28T19:01:19;3.95;;;2.28;;
69183;SDS011;56291;53.960;27.550;2023-02-28T19:03:45;4.15;;;1.88;;
69183;SDS011;56291;53.960;27.550;2023-02-28T19:06:13;4.07;;;2.13;;
69183;SDS011;56291;53.960;27.550;2023-02-28T19:08:40;4.18;;;1.98;;
69183;SDS011;56291;53.960;27.550;2023-02-28T19:11:13;4.97;;;2.25;;
69183;SDS011;56291;53.960;27.550;2023-02-28T19:13:41;3.00;;;2.08;;
69183;SDS011;56291;53.960;27.550;2023-02-28T19:16:08;3.72;;;1.90;;
69183;SDS011;56291;53.960;27.550;2023-02-28T19:18:35;4.35;;;2.38;;
69183;SDS011;56291;53.960;27.550;2023-02-28T19:21:02;4.57;;;2.42;;
69183;SDS011;56291;53.960;27.550;2023-02-28T19:23:33;5.70;;;2.35;;
69183;SDS011;56291;53.960;27.550;2023-02-28T19:26:04;6.22;;;2.22;;
69183;SDS011;56291;53.960;27.550;2023-02-28T19:28:35;4.38;;;2.00;;
69183;SDS011;56291;53.960;27.550;2023-02-28T19:31:02;4.70;;;2.75;;
69183;SDS011;56291;53.960;27.550;2023-02-28T19:33:30;5.15;;;2.20;;
69183;SDS011;56291;53.960;27.550;2023-02-28T19:35:59;4.60;;;2.40;;
69183;SDS011;56291;53.960;27.550;2023-02-28T19:38:26;3.20;;;2.03;;
69183;SDS011;56291;53.960;27.550;2023-02-28T19:40:59;4.20;;;2.40;;
69183;SDS011;56291;53.960;27.550;2023-02-28T19:43:26;3.67;;;2.40;;
69183;SDS011;56291;53.960;27.550;2023-02-28T19:45:53;5.82;;;2.47;;
69183;SDS011;56291;53.960;27.550;2023-02-28T19:48:21;4.90;;;2.15;;
69183;SDS011;56291;53.960;27.550;2023-02-28T19:50:50;3.47;;;1.88;;
69183;SDS011;56291;53.960;27.550;2023-02-28T19:53:21;3.78;;;2.03;;
69183;SDS011;56291;53.960;27.550;2023-02-28T19:55:48;3.13;;;2.03;;
69183;SDS011;56291;53.960;27.550;2023-02-28T19:58:17;4.90;;;2.58;;
69183;SDS011;56291;53.960;27.550;2023-02-28T20:00:43;7.28;;;2.47;;
69183;SDS011;56291;53.960;27.550;2023-02-28T20:03:16;3.63;;;2.25;;
69183;SDS011;56291;53.960;27.550;2023-02-28T20:05:45;4.05;;;2.28;;
69183;SDS011;56291;53.960;27.550;2023-02-28T20:08:12;6.28;;;2.90;;
69183;SDS011;56291;53.960;27.550;2023-02-28T20:10:40;5.70;;;2.22;;
69183;SDS011;56291;53.960;27.550;2023-02-28T20:13:06;4.97;;;2.08;;
69183;SDS011;56291;53.960;27.550;2023-02-28T20:15:32;5.20;;;2.15;;
69183;SDS011;56291;53.960;27.550;2023-02-28T20:17:59;6.55;;;2.20;;
69183;SDS011;56291;53.960;27.550;2023-02-28T20:20:25;2.70;;;1.90;;
69183;SDS011;56291;53.960;27.550;2023-02-28T20:22:51;4.63;;;2.75;;
69183;SDS011;56291;53.960;27.550;2023-02-28T20:27:47;5.28;;;2.45;;
69183;SDS011;56291;53.960;27.550;2023-02-28T20:30:13;3.05;;;2.13;;
69183;SDS011;56291;53.960;27.550;2023-02-28T20:32:40;4.70;;;2.30;;
69183;SDS011;56291;53.960;27.550;2023-02-28T20:35:06;4.03;;;2.08;;
69183;SDS011;56291;53.960;27.550;2023-02-28T20:37:35;5.05;;;2.45;;
69183;SDS011;56291;53.960;27.550;2023-02-28T20:40:02;5.57;;;2.65;;
69183;SDS011;56291;53.960;27.550;2023-02-28T20:42:29;4.97;;;2.08;;
69183;SDS011;56291;53.960;27.550;2023-02-28T20:44:55;3.90;;;2.33;;
69183;SDS011;56291;53.960;27.550;2023-02-28T20:47:22;3.15;;;2.15;;
69183;SDS011;56291;53.960;27.550;2023-02-28T20:49:48;4.20;;;2.40;;
69183;SDS011;56291;53.960;27.550;2023-02-28T20:52:14;4.70;;;2.10;;
69183;SDS011;56291;53.960;27.550;2023-02-28T20:54:40;6.80;;;2.05;;
69183;SDS011;56291;53.960;27.550;2023-02-28T20:57:07;4.68;;;2.50;;
69183;SDS011;56291;53.960;27.550;2023-02-28T20:59:33;4.43;;;2.20;;
69183;SDS011;56291;53.960;27.550;2023-02-28T21:01:59;4.05;;;2.60;;
69183;SDS011;56291;53.960;27.550;2023-02-28T21:04:25;4.43;;;2.22;;
